sensor_id;sensor_type;location;lat;lon;timestamp;P1;durP1;ratioP1;P2;durP2;ratioP2
39890;SDS011;25564;53.312;9.790;2023-04-25T00:00:01;6.97;;;4.03;;
39890;SDS011;25564;53.312;9.790;2023-04-25T00:02:34;10.03;;;4.27;;
39890;SDS011;25564;53.312;9.790;2023-04-25T00:05:06;10.63;;;4.50;;
39890;SDS011;25564;53.312;9.790;2023-04-25T00:07:38;9.43;;;4.43;;
39890;SDS011;25564;53.312;9.790;2023-04-25T00:10:09;8.47;;;4.27;;
39890;SDS011;25564;53.312;9.790;2023-04-25T00:12:43;7.10;;;4.20;;
39890;SDS011;25564;53.312;9.790;2023-04-25T00:15:15;8.23;;;4.80;;
39890;SDS011;25564;53.312;9.790;2023-04-25T00:17:47;7.33;;;4.00;;
39890;SDS011;25564;53.312;9.790;2023-04-25T00:20:18;5.70;;;3.43;;
39890;SDS011;25564;53.312;9.790;2023-04-25T00:22:50;8.40;;;3.27;;
39890;SDS011;25564;53.312;9.790;2023-04-25T00:25:21;6.03;;;2.70;;
39890;SDS011;25564;53.312;9.790;2023-04-25T00:27:53;6.13;;;2.83;;
39890;SDS011;25564;53.312;9.790;2023-04-25T00:30:24;7.70;;;2.63;;
39890;SDS011;25564;53.312;9.790;2023-04-25T00:32:55;9.87;;;2.37;;
39890;SDS011;25564;53.312;9.790;2023-04-25T00:35:27;6.70;;;2.53;;
39890;SDS011;25564;53.312;9.790;2023-04-25T00:37:59;10.67;;;3.67;;
39890;SDS011;25564;53.312;9.790;2023-04-25T00:40:30;10.17;;;2.60;;
39890;SDS011;25564;53.312;9.790;2023-04-25T00:43:01;14.70;;;3.43;;
39890;SDS011;25564;53.312;9.790;2023-04-25T00:45:33;10.47;;;3.10;;
39890;SDS011;25564;53.312;9.790;2023-04-25T00:48:09;11.73;;;3.45;;
39890;SDS011;25564;53.312;9.790;2023-04-25T00:50:40;12.67;;;3.33;;
39890;SDS011;25564;53.312;9.790;2023-04-25T00:53:12;13.40;;;3.53;;
39890;SDS011;25564;53.312;9.790;2023-04-25T00:55:43;18.77;;;4.83;;
39890;SDS011;25564;53.312;9.790;2023-04-25T00:58:15;15.97;;;4.70;;
39890;SDS011;25564;53.312;9.790;2023-04-25T01:00:47;12.23;;;3.30;;
39890;SDS011;25564;53.312;9.790;2023-04-25T01:03:19;16.53;;;4.03;;
39890;SDS011;25564;53.312;9.790;2023-04-25T01:05:51;12.10;;;4.13;;
39890;SDS011;25564;53.312;9.790;2023-04-25T01:08:23;13.57;;;2.70;;
39890;SDS011;25564;53.312;9.790;2023-04-25T01:10:58;20.20;;;4.47;;
39890;SDS011;25564;53.312;9.790;2023-04-25T01:13:29;17.00;;;3.63;;
39890;SDS011;25564;53.312;9.790;2023-04-25T01:16:03;14.70;;;4.87;;
39890;SDS011;25564;53.312;9.790;2023-04-25T01:18:34;13.13;;;3.03;;
39890;SDS011;25564;53.312;9.790;2023-04-25T01:21:07;19.93;;;4.20;;
39890;SDS011;25564;53.312;9.790;2023-04-25T01:23:41;15.47;;;3.07;;
39890;SDS011;25564;53.312;9.790;2023-04-25T01:26:13;8.87;;;3.03;;
39890;SDS011;25564;53.312;9.790;2023-04-25T01:28:44;17.17;;;3.57;;
39890;SDS011;25564;53.312;9.790;2023-04-25T01:31:16;16.73;;;3.43;;
39890;SDS011;25564;53.312;9.790;2023-04-25T01:33:47;19.87;;;4.00;;
39890;SDS011;25564;53.312;9.790;2023-04-25T01:36:19;13.27;;;3.83;;
39890;SDS011;25564;53.312;9.790;2023-04-25T01:38:51;11.87;;;3.53;;
39890;SDS011;25564;53.312;9.790;2023-04-25T01:41:23;13.60;;;3.77;;
39890;SDS011;25564;53.312;9.790;2023-04-25T01:43:54;11.80;;;3.17;;
39890;SDS011;25564;53.312;9.790;2023-04-25T01:46:26;15.33;;;3.60;;
39890;SDS011;25564;53.312;9.790;2023-04-25T01:48:58;18.57;;;3.40;;
39890;SDS011;25564;53.312;9.790;2023-04-25T01:51:29;18.03;;;3.83;;
39890;SDS011;25564;53.312;9.790;2023-04-25T01:54:01;19.70;;;4.43;;
39890;SDS011;25564;53.312;9.790;2023-04-25T01:56:32;21.17;;;3.53;;
39890;SDS011;25564;53.312;9.790;2023-04-25T01:59:07;26.63;;;5.23;;
39890;SDS011;25564;53.312;9.790;2023-04-25T02:01:38;15.53;;;3.63;;
39890;SDS011;25564;53.312;9.790;2023-04-25T02:04:10;15.80;;;4.33;;
39890;SDS011;25564;53.312;9.790;2023-04-25T02:06:41;15.17;;;3.33;;
39890;SDS011;25564;53.312;9.790;2023-04-25T02:09:13;20.00;;;4.60;;
39890;SDS011;25564;53.312;9.790;2023-04-25T02:11:44;17.43;;;4.57;;
39890;SDS011;25564;53.312;9.790;2023-04-25T02:14:15;12.83;;;3.33;;
39890;SDS011;25564;53.312;9.790;2023-04-25T02:16:47;10.23;;;3.17;;
39890;SDS011;25564;53.312;9.790;2023-04-25T02:19:18;19.70;;;4.47;;
39890;SDS011;25564;53.312;9.790;2023-04-25T02:21:49;21.97;;;4.93;;
39890;SDS011;25564;53.312;9.790;2023-04-25T02:24:21;27.10;;;4.60;;
39890;SDS011;25564;53.312;9.790;2023-04-25T02:26:53;22.67;;;5.40;;
39890;SDS011;25564;53.312;9.790;2023-04-25T02:29:24;22.73;;;3.63;;
39890;SDS011;25564;53.312;9.790;2023-04-25T02:31:55;24.37;;;3.63;;
39890;SDS011;25564;53.312;9.790;2023-04-25T02:34:27;17.17;;;3.83;;
39890;SDS011;25564;53.312;9.790;2023-04-25T02:36:58;18.37;;;3.53;;
39890;SDS011;25564;53.312;9.790;2023-04-25T02:39:29;20.70;;;4.23;;
39890;SDS011;25564;53.312;9.790;2023-04-25T02:42:01;14.17;;;4.03;;
39890;SDS011;25564;53.312;9.790;2023-04-25T02:44:32;17.17;;;3.37;;
39890;SDS011;25564;53.312;9.790;2023-04-25T02:47:03;25.03;;;4.13;;
39890;SDS011;25564;53.312;9.790;2023-04-25T02:49:35;14.20;;;3.73;;
39890;SDS011;25564;53.312;9.790;2023-04-25T02:52:06;15.17;;;3.60;;
39890;SDS011;25564;53.312;9.790;2023-04-25T02:54:38;13.40;;;3.80;;
39890;SDS011;25564;53.312;9.790;2023-04-25T02:57:09;13.77;;;3.13;;
39890;SDS011;25564;53.312;9.790;2023-04-25T02:59:41;20.93;;;4.93;;
39890;SDS011;25564;53.312;9.790;2023-04-25T03:02:12;15.50;;;3.50;;
39890;SDS011;25564;53.312;9.790;2023-04-25T03:04:43;20.73;;;3.60;;
39890;SDS011;25564;53.312;9.790;2023-04-25T03:07:15;13.73;;;4.30;;
39890;SDS011;25564;53.312;9.790;2023-04-25T03:09:46;16.43;;;5.00;;
39890;SDS011;25564;53.312;9.790;2023-04-25T03:12:17;15.70;;;3.00;;
39890;SDS011;25564;53.312;9.790;2023-04-25T03:14:49;16.57;;;3.57;;
39890;SDS011;25564;53.312;9.790;2023-04-25T03:17:20;11.53;;;3.43;;
39890;SDS011;25564;53.312;9.790;2023-04-25T03:19:52;15.97;;;2.93;;
39890;SDS011;25564;53.312;9.790;2023-04-25T03:22:23;19.50;;;3.53;;
39890;SDS011;25564;53.312;9.790;2023-04-25T03:24:55;19.30;;;4.30;;
39890;SDS011;25564;53.312;9.790;2023-04-25T03:27:26;14.23;;;2.60;;
39890;SDS011;25564;53.312;9.790;2023-04-25T03:29:57;17.90;;;4.10;;
39890;SDS011;25564;53.312;9.790;2023-04-25T03:32:29;18.87;;;3.23;;
39890;SDS011;25564;53.312;9.790;2023-04-25T03:35:00;10.80;;;3.53;;
39890;SDS011;25564;53.312;9.790;2023-04-25T03:37:32;14.00;;;3.10;;
39890;SDS011;25564;53.312;9.790;2023-04-25T03:40:03;17.10;;;3.37;;
39890;SDS011;25564;53.312;9.790;2023-04-25T03:42:35;13.40;;;3.30;;
39890;SDS011;25564;53.312;9.790;2023-04-25T03:45:07;14.10;;;3.43;;
39890;SDS011;25564;53.312;9.790;2023-04-25T03:47:38;18.27;;;4.10;;
39890;SDS011;25564;53.312;9.790;2023-04-25T03:50:10;13.43;;;3.87;;
39890;SDS011;25564;53.312;9.790;2023-04-25T03:52:42;12.00;;;2.90;;
39890;SDS011;25564;53.312;9.790;2023-04-25T03:55:14;15.40;;;3.43;;
39890;SDS011;25564;53.312;9.790;2023-04-25T03:57:45;9.10;;;3.20;;
39890;SDS011;25564;53.312;9.790;2023-04-25T04:00:16;14.07;;;3.13;;
39890;SDS011;25564;53.312;9.790;2023-04-25T04:02:48;16.80;;;4.03;;
39890;SDS011;25564;53.312;9.790;2023-04-25T04:05:19;13.10;;;3.43;;
39890;SDS011;25564;53.312;9.790;2023-04-25T04:07:51;24.83;;;4.30;;
39890;SDS011;25564;53.312;9.790;2023-04-25T04:10:22;15.40;;;4.00;;
39890;SDS011;25564;53.312;9.790;2023-04-25T04:12:53;14.20;;;3.30;;
39890;SDS011;25564;53.312;9.790;2023-04-25T04:15:26;20.97;;;3.70;;
39890;SDS011;25564;53.312;9.790;2023-04-25T04:17:57;19.27;;;3.83;;
39890;SDS011;25564;53.312;9.790;2023-04-25T04:20:33;15.30;;;3.33;;
39890;SDS011;25564;53.312;9.790;2023-04-25T04:23:04;17.60;;;4.33;;
39890;SDS011;25564;53.312;9.790;2023-04-25T04:25:36;20.30;;;3.53;;
39890;SDS011;25564;53.312;9.790;2023-04-25T04:28:08;12.57;;;4.00;;
39890;SDS011;25564;53.312;9.790;2023-04-25T04:30:39;16.47;;;4.10;;
39890;SDS011;25564;53.312;9.790;2023-04-25T04:33:12;12.17;;;3.60;;
39890;SDS011;25564;53.312;9.790;2023-04-25T04:35:45;12.33;;;3.47;;
39890;SDS011;25564;53.312;9.790;2023-04-25T04:38:17;13.17;;;2.93;;
39890;SDS011;25564;53.312;9.790;2023-04-25T04:40:49;14.47;;;3.70;;
39890;SDS011;25564;53.312;9.790;2023-04-25T04:43:21;12.93;;;3.80;;
39890;SDS011;25564;53.312;9.790;2023-04-25T04:45:54;15.10;;;2.87;;
39890;SDS011;25564;53.312;9.790;2023-04-25T04:48:27;14.03;;;3.63;;
39890;SDS011;25564;53.312;9.790;2023-04-25T04:50:59;18.77;;;4.20;;
39890;SDS011;25564;53.312;9.790;2023-04-25T04:53:31;15.63;;;4.57;;
39890;SDS011;25564;53.312;9.790;2023-04-25T04:56:03;16.63;;;3.80;;
39890;SDS011;25564;53.312;9.790;2023-04-25T04:58:36;10.27;;;3.40;;
39890;SDS011;25564;53.312;9.790;2023-04-25T05:01:07;11.77;;;3.50;;
39890;SDS011;25564;53.312;9.790;2023-04-25T05:03:39;22.00;;;3.67;;
39890;SDS011;25564;53.312;9.790;2023-04-25T05:06:10;14.23;;;3.83;;
39890;SDS011;25564;53.312;9.790;2023-04-25T05:08:42;14.37;;;3.53;;
39890;SDS011;25564;53.312;9.790;2023-04-25T05:11:13;14.07;;;3.23;;
39890;SDS011;25564;53.312;9.790;2023-04-25T05:13:45;9.37;;;3.10;;
39890;SDS011;25564;53.312;9.790;2023-04-25T05:16:16;16.83;;;3.33;;
39890;SDS011;25564;53.312;9.790;2023-04-25T05:18:48;15.13;;;3.00;;
39890;SDS011;25564;53.312;9.790;2023-04-25T05:21:19;15.77;;;2.97;;
39890;SDS011;25564;53.312;9.790;2023-04-25T05:23:51;12.37;;;3.23;;
39890;SDS011;25564;53.312;9.790;2023-04-25T05:26:23;12.33;;;3.00;;
39890;SDS011;25564;53.312;9.790;2023-04-25T05:28:54;14.60;;;2.50;;
39890;SDS011;25564;53.312;9.790;2023-04-25T05:31:26;9.43;;;3.37;;
39890;SDS011;25564;53.312;9.790;2023-04-25T05:33:57;14.53;;;2.83;;
39890;SDS011;25564;53.312;9.790;2023-04-25T05:36:29;7.43;;;2.40;;
39890;SDS011;25564;53.312;9.790;2023-04-25T05:39:01;10.30;;;3.80;;
39890;SDS011;25564;53.312;9.790;2023-04-25T05:41:35;13.03;;;3.10;;
39890;SDS011;25564;53.312;9.790;2023-04-25T05:44:06;9.60;;;3.10;;
39890;SDS011;25564;53.312;9.790;2023-04-25T05:46:38;12.50;;;3.40;;
39890;SDS011;25564;53.312;9.790;2023-04-25T05:49:09;19.77;;;5.13;;
39890;SDS011;25564;53.312;9.790;2023-04-25T05:51:41;11.60;;;3.60;;
39890;SDS011;25564;53.312;9.790;2023-04-25T05:54:12;18.77;;;3.57;;
39890;SDS011;25564;53.312;9.790;2023-04-25T05:56:43;12.77;;;2.63;;
39890;SDS011;25564;53.312;9.790;2023-04-25T05:59:14;10.80;;;2.77;;
39890;SDS011;25564;53.312;9.790;2023-04-25T06:01:46;12.03;;;2.93;;
39890;SDS011;25564;53.312;9.790;2023-04-25T06:04:18;12.73;;;3.53;;
39890;SDS011;25564;53.312;9.790;2023-04-25T06:06:49;11.93;;;2.67;;
39890;SDS011;25564;53.312;9.790;2023-04-25T06:09:21;7.97;;;2.53;;
39890;SDS011;25564;53.312;9.790;2023-04-25T06:11:52;8.27;;;2.90;;
39890;SDS011;25564;53.312;9.790;2023-04-25T06:14:24;11.90;;;2.60;;
39890;SDS011;25564;53.312;9.790;2023-04-25T06:16:57;12.23;;;3.47;;
39890;SDS011;25564;53.312;9.790;2023-04-25T06:19:28;9.83;;;3.67;;
39890;SDS011;25564;53.312;9.790;2023-04-25T06:22:00;10.57;;;3.77;;
39890;SDS011;25564;53.312;9.790;2023-04-25T06:24:31;15.47;;;2.90;;
39890;SDS011;25564;53.312;9.790;2023-04-25T06:27:03;9.07;;;2.00;;
39890;SDS011;25564;53.312;9.790;2023-04-25T06:29:34;11.43;;;3.37;;
39890;SDS011;25564;53.312;9.790;2023-04-25T06:32:05;17.77;;;2.67;;
39890;SDS011;25564;53.312;9.790;2023-04-25T06:34:37;14.57;;;3.03;;
39890;SDS011;25564;53.312;9.790;2023-04-25T06:37:08;13.97;;;2.70;;
39890;SDS011;25564;53.312;9.790;2023-04-25T06:39:40;14.90;;;3.33;;
39890;SDS011;25564;53.312;9.790;2023-04-25T06:42:11;10.57;;;2.80;;
39890;SDS011;25564;53.312;9.790;2023-04-25T06:44:43;16.80;;;3.20;;
39890;SDS011;25564;53.312;9.790;2023-04-25T06:47:14;13.67;;;3.00;;
39890;SDS011;25564;53.312;9.790;2023-04-25T06:49:45;9.10;;;3.30;;
39890;SDS011;25564;53.312;9.790;2023-04-25T06:52:17;10.20;;;2.70;;
39890;SDS011;25564;53.312;9.790;2023-04-25T06:54:49;10.63;;;2.47;;
39890;SDS011;25564;53.312;9.790;2023-04-25T06:57:20;11.63;;;2.80;;
39890;SDS011;25564;53.312;9.790;2023-04-25T06:59:52;8.90;;;3.80;;
39890;SDS011;25564;53.312;9.790;2023-04-25T07:02:23;11.87;;;2.30;;
39890;SDS011;25564;53.312;9.790;2023-04-25T07:04:55;7.23;;;2.00;;
39890;SDS011;25564;53.312;9.790;2023-04-25T07:07:30;10.48;;;2.10;;
39890;SDS011;25564;53.312;9.790;2023-04-25T07:10:02;8.50;;;2.00;;
39890;SDS011;25564;53.312;9.790;2023-04-25T07:12:33;7.97;;;2.43;;
39890;SDS011;25564;53.312;9.790;2023-04-25T07:15:05;14.17;;;2.40;;
39890;SDS011;25564;53.312;9.790;2023-04-25T07:17:37;8.60;;;1.93;;
39890;SDS011;25564;53.312;9.790;2023-04-25T07:20:09;6.83;;;1.97;;
39890;SDS011;25564;53.312;9.790;2023-04-25T07:22:41;6.43;;;1.80;;
39890;SDS011;25564;53.312;9.790;2023-04-25T07:25:12;5.90;;;2.20;;
39890;SDS011;25564;53.312;9.790;2023-04-25T07:27:44;9.43;;;1.90;;
39890;SDS011;25564;53.312;9.790;2023-04-25T07:30:15;4.83;;;2.10;;
39890;SDS011;25564;53.312;9.790;2023-04-25T07:32:47;7.60;;;2.07;;
39890;SDS011;25564;53.312;9.790;2023-04-25T07:35:18;9.93;;;1.93;;
39890;SDS011;25564;53.312;9.790;2023-04-25T07:37:50;6.53;;;1.80;;
39890;SDS011;25564;53.312;9.790;2023-04-25T07:40:22;6.10;;;1.60;;
39890;SDS011;25564;53.312;9.790;2023-04-25T07:42:53;5.30;;;1.83;;
39890;SDS011;25564;53.312;9.790;2023-04-25T07:45:25;4.50;;;1.67;;
39890;SDS011;25564;53.312;9.790;2023-04-25T07:47:57;8.83;;;2.80;;
39890;SDS011;25564;53.312;9.790;2023-04-25T07:50:28;8.77;;;1.97;;
39890;SDS011;25564;53.312;9.790;2023-04-25T07:52:59;9.50;;;1.90;;
39890;SDS011;25564;53.312;9.790;2023-04-25T07:55:31;5.23;;;1.73;;
39890;SDS011;25564;53.312;9.790;2023-04-25T07:58:02;6.80;;;2.70;;
39890;SDS011;25564;53.312;9.790;2023-04-25T08:00:34;4.80;;;1.37;;
39890;SDS011;25564;53.312;9.790;2023-04-25T08:03:05;5.23;;;1.03;;
39890;SDS011;25564;53.312;9.790;2023-04-25T08:05:37;2.67;;;0.90;;
39890;SDS011;25564;53.312;9.790;2023-04-25T08:08:09;6.93;;;1.67;;
39890;SDS011;25564;53.312;9.790;2023-04-25T08:10:41;3.23;;;1.13;;
39890;SDS011;25564;53.312;9.790;2023-04-25T08:13:13;8.53;;;1.93;;
39890;SDS011;25564;53.312;9.790;2023-04-25T08:15:44;10.40;;;1.97;;
39890;SDS011;25564;53.312;9.790;2023-04-25T08:18:16;7.27;;;1.87;;
39890;SDS011;25564;53.312;9.790;2023-04-25T08:20:48;8.23;;;2.10;;
39890;SDS011;25564;53.312;9.790;2023-04-25T08:23:19;10.10;;;3.00;;
39890;SDS011;25564;53.312;9.790;2023-04-25T08:25:51;7.83;;;1.57;;
39890;SDS011;25564;53.312;9.790;2023-04-25T08:28:22;6.33;;;2.17;;
39890;SDS011;25564;53.312;9.790;2023-04-25T08:30:53;7.57;;;2.13;;
39890;SDS011;25564;53.312;9.790;2023-04-25T08:33:25;11.70;;;2.33;;
39890;SDS011;25564;53.312;9.790;2023-04-25T08:35:56;12.90;;;2.07;;
39890;SDS011;25564;53.312;9.790;2023-04-25T08:38:28;13.20;;;2.67;;
39890;SDS011;25564;53.312;9.790;2023-04-25T08:41:00;9.60;;;2.00;;
39890;SDS011;25564;53.312;9.790;2023-04-25T08:43:34;5.40;;;1.33;;
39890;SDS011;25564;53.312;9.790;2023-04-25T08:46:06;6.93;;;1.43;;
39890;SDS011;25564;53.312;9.790;2023-04-25T08:48:39;5.73;;;1.23;;
39890;SDS011;25564;53.312;9.790;2023-04-25T08:54:11;6.30;;;1.77;;
39890;SDS011;25564;53.312;9.790;2023-04-25T08:56:47;11.52;;;1.98;;
39890;SDS011;25564;53.312;9.790;2023-04-25T08:59:19;7.97;;;1.80;;
39890;SDS011;25564;53.312;9.790;2023-04-25T09:01:50;5.77;;;1.43;;
39890;SDS011;25564;53.312;9.790;2023-04-25T09:04:22;7.67;;;2.10;;
39890;SDS011;25564;53.312;9.790;2023-04-25T09:06:53;8.33;;;1.33;;
39890;SDS011;25564;53.312;9.790;2023-04-25T09:09:25;10.03;;;1.27;;
39890;SDS011;25564;53.312;9.790;2023-04-25T09:11:56;7.67;;;1.67;;
39890;SDS011;25564;53.312;9.790;2023-04-25T09:14:29;5.63;;;1.47;;
39890;SDS011;25564;53.312;9.790;2023-04-25T09:17:01;13.33;;;2.27;;
39890;SDS011;25564;53.312;9.790;2023-04-25T09:19:36;9.32;;;1.75;;
39890;SDS011;25564;53.312;9.790;2023-04-25T09:22:12;10.43;;;1.70;;
39890;SDS011;25564;53.312;9.790;2023-04-25T09:24:44;9.00;;;1.93;;
39890;SDS011;25564;53.312;9.790;2023-04-25T09:27:21;6.40;;;1.50;;
39890;SDS011;25564;53.312;9.790;2023-04-25T09:29:57;3.83;;;1.53;;
39890;SDS011;25564;53.312;9.790;2023-04-25T09:32:32;8.83;;;1.80;;
39890;SDS011;25564;53.312;9.790;2023-04-25T09:35:04;6.60;;;2.23;;
39890;SDS011;25564;53.312;9.790;2023-04-25T09:37:36;4.00;;;1.00;;
39890;SDS011;25564;53.312;9.790;2023-04-25T09:40:08;4.23;;;1.43;;
39890;SDS011;25564;53.312;9.790;2023-04-25T09:42:41;7.30;;;1.50;;
39890;SDS011;25564;53.312;9.790;2023-04-25T09:45:13;2.60;;;1.17;;
39890;SDS011;25564;53.312;9.790;2023-04-25T09:47:46;8.50;;;1.57;;
39890;SDS011;25564;53.312;9.790;2023-04-25T09:50:17;7.10;;;1.10;;
39890;SDS011;25564;53.312;9.790;2023-04-25T09:53:02;5.17;;;1.70;;
39890;SDS011;25564;53.312;9.790;2023-04-25T09:55:35;8.50;;;1.70;;
39890;SDS011;25564;53.312;9.790;2023-04-25T09:58:08;8.73;;;1.67;;
39890;SDS011;25564;53.312;9.790;2023-04-25T10:00:42;6.50;;;1.47;;
39890;SDS011;25564;53.312;9.790;2023-04-25T10:03:14;6.97;;;1.30;;
39890;SDS011;25564;53.312;9.790;2023-04-25T10:05:47;6.73;;;1.60;;
39890;SDS011;25564;53.312;9.790;2023-04-25T10:08:20;7.20;;;1.47;;
39890;SDS011;25564;53.312;9.790;2023-04-25T10:10:53;6.80;;;1.77;;
39890;SDS011;25564;53.312;9.790;2023-04-25T10:13:26;9.30;;;1.60;;
39890;SDS011;25564;53.312;9.790;2023-04-25T10:16:00;8.13;;;2.23;;
39890;SDS011;25564;53.312;9.790;2023-04-25T10:18:34;7.47;;;1.20;;
39890;SDS011;25564;53.312;9.790;2023-04-25T10:21:06;6.03;;;1.90;;
39890;SDS011;25564;53.312;9.790;2023-04-25T10:23:38;4.17;;;1.80;;
39890;SDS011;25564;53.312;9.790;2023-04-25T10:26:10;4.47;;;2.73;;
39890;SDS011;25564;53.312;9.790;2023-04-25T10:31:29;9.17;;;1.83;;
39890;SDS011;25564;53.312;9.790;2023-04-25T10:34:02;4.90;;;1.60;;
39890;SDS011;25564;53.312;9.790;2023-04-25T10:36:33;6.50;;;1.70;;
39890;SDS011;25564;53.312;9.790;2023-04-25T10:39:05;7.13;;;1.40;;
39890;SDS011;25564;53.312;9.790;2023-04-25T10:41:51;10.87;;;1.80;;
39890;SDS011;25564;53.312;9.790;2023-04-25T10:44:30;3.03;;;1.17;;
39890;SDS011;25564;53.312;9.790;2023-04-25T10:47:02;4.53;;;1.30;;
39890;SDS011;25564;53.312;9.790;2023-04-25T10:49:38;1.87;;;1.03;;
39890;SDS011;25564;53.312;9.790;2023-04-25T10:54:54;7.10;;;1.30;;
39890;SDS011;25564;53.312;9.790;2023-04-25T10:57:30;5.03;;;1.50;;
39890;SDS011;25564;53.312;9.790;2023-04-25T11:00:12;3.27;;;1.23;;
39890;SDS011;25564;53.312;9.790;2023-04-25T11:02:48;9.03;;;1.27;;
39890;SDS011;25564;53.312;9.790;2023-04-25T11:05:21;5.23;;;0.97;;
39890;SDS011;25564;53.312;9.790;2023-04-25T11:08:11;2.87;;;1.27;;
39890;SDS011;25564;53.312;9.790;2023-04-25T11:13:16;3.00;;;0.93;;
39890;SDS011;25564;53.312;9.790;2023-04-25T11:15:52;4.60;;;1.20;;
39890;SDS011;25564;53.312;9.790;2023-04-25T11:18:42;7.90;;;1.30;;
39890;SDS011;25564;53.312;9.790;2023-04-25T11:21:21;9.70;;;1.80;;
39890;SDS011;25564;53.312;9.790;2023-04-25T11:23:53;9.20;;;1.77;;
39890;SDS011;25564;53.312;9.790;2023-04-25T11:26:25;4.20;;;1.10;;
39890;SDS011;25564;53.312;9.790;2023-04-25T11:28:57;6.60;;;1.53;;
39890;SDS011;25564;53.312;9.790;2023-04-25T11:31:30;6.00;;;1.77;;
39890;SDS011;25564;53.312;9.790;2023-04-25T11:34:02;5.67;;;1.13;;
39890;SDS011;25564;53.312;9.790;2023-04-25T11:36:33;6.50;;;1.20;;
39890;SDS011;25564;53.312;9.790;2023-04-25T11:39:05;13.20;;;1.73;;
39890;SDS011;25564;53.312;9.790;2023-04-25T11:41:37;6.10;;;2.27;;
39890;SDS011;25564;53.312;9.790;2023-04-25T11:44:09;12.30;;;2.23;;
39890;SDS011;25564;53.312;9.790;2023-04-25T11:46:41;4.80;;;1.37;;
39890;SDS011;25564;53.312;9.790;2023-04-25T11:49:13;5.60;;;1.83;;
39890;SDS011;25564;53.312;9.790;2023-04-25T11:51:46;4.27;;;1.67;;
39890;SDS011;25564;53.312;9.790;2023-04-25T11:54:18;9.03;;;1.73;;
39890;SDS011;25564;53.312;9.790;2023-04-25T11:56:50;6.40;;;1.37;;
39890;SDS011;25564;53.312;9.790;2023-04-25T11:59:25;9.33;;;1.40;;
39890;SDS011;25564;53.312;9.790;2023-04-25T12:01:57;5.43;;;1.17;;
39890;SDS011;25564;53.312;9.790;2023-04-25T12:04:29;2.03;;;0.77;;
39890;SDS011;25564;53.312;9.790;2023-04-25T12:07:03;2.33;;;1.43;;
39890;SDS011;25564;53.312;9.790;2023-04-25T12:09:35;3.37;;;1.10;;
39890;SDS011;25564;53.312;9.790;2023-04-25T12:12:09;9.17;;;1.70;;
39890;SDS011;25564;53.312;9.790;2023-04-25T12:14:41;5.07;;;1.00;;
39890;SDS011;25564;53.312;9.790;2023-04-25T12:17:19;2.20;;;0.80;;
39890;SDS011;25564;53.312;9.790;2023-04-25T12:19:50;2.20;;;1.00;;
39890;SDS011;25564;53.312;9.790;2023-04-25T12:22:22;3.30;;;1.10;;
39890;SDS011;25564;53.312;9.790;2023-04-25T12:24:55;2.33;;;1.57;;
39890;SDS011;25564;53.312;9.790;2023-04-25T12:27:30;2.10;;;0.63;;
39890;SDS011;25564;53.312;9.790;2023-04-25T12:30:02;8.17;;;1.40;;
39890;SDS011;25564;53.312;9.790;2023-04-25T12:32:34;2.70;;;0.70;;
39890;SDS011;25564;53.312;9.790;2023-04-25T12:35:06;5.37;;;0.80;;
39890;SDS011;25564;53.312;9.790;2023-04-25T12:37:38;3.50;;;1.27;;
39890;SDS011;25564;53.312;9.790;2023-04-25T12:40:10;3.77;;;1.23;;
39890;SDS011;25564;53.312;9.790;2023-04-25T12:42:41;5.33;;;1.73;;
39890;SDS011;25564;53.312;9.790;2023-04-25T12:45:12;3.40;;;1.37;;
39890;SDS011;25564;53.312;9.790;2023-04-25T12:47:44;4.97;;;1.27;;
39890;SDS011;25564;53.312;9.790;2023-04-25T12:50:15;3.67;;;0.77;;
39890;SDS011;25564;53.312;9.790;2023-04-25T12:52:47;6.63;;;0.97;;
39890;SDS011;25564;53.312;9.790;2023-04-25T12:55:18;2.63;;;1.13;;
39890;SDS011;25564;53.312;9.790;2023-04-25T12:57:49;2.17;;;0.77;;
39890;SDS011;25564;53.312;9.790;2023-04-25T13:00:21;2.90;;;0.80;;
39890;SDS011;25564;53.312;9.790;2023-04-25T13:02:52;4.07;;;1.40;;
39890;SDS011;25564;53.312;9.790;2023-04-25T13:05:24;6.90;;;1.50;;
39890;SDS011;25564;53.312;9.790;2023-04-25T13:07:56;3.07;;;1.77;;
39890;SDS011;25564;53.312;9.790;2023-04-25T13:10:28;5.37;;;0.90;;
39890;SDS011;25564;53.312;9.790;2023-04-25T13:12:59;4.57;;;1.70;;
39890;SDS011;25564;53.312;9.790;2023-04-25T13:15:32;6.43;;;1.33;;
39890;SDS011;25564;53.312;9.790;2023-04-25T13:18:03;8.53;;;1.37;;
39890;SDS011;25564;53.312;9.790;2023-04-25T13:20:36;5.93;;;1.20;;
39890;SDS011;25564;53.312;9.790;2023-04-25T13:23:08;8.53;;;3.07;;
39890;SDS011;25564;53.312;9.790;2023-04-25T13:25:39;5.63;;;1.57;;
39890;SDS011;25564;53.312;9.790;2023-04-25T13:28:11;3.57;;;1.97;;
39890;SDS011;25564;53.312;9.790;2023-04-25T13:30:42;3.73;;;0.87;;
39890;SDS011;25564;53.312;9.790;2023-04-25T13:33:14;3.07;;;1.00;;
39890;SDS011;25564;53.312;9.790;2023-04-25T13:35:46;3.03;;;1.60;;
39890;SDS011;25564;53.312;9.790;2023-04-25T13:38:25;6.13;;;1.80;;
39890;SDS011;25564;53.312;9.790;2023-04-25T13:40:56;6.10;;;1.10;;
39890;SDS011;25564;53.312;9.790;2023-04-25T13:43:28;9.37;;;2.33;;
39890;SDS011;25564;53.312;9.790;2023-04-25T13:45:59;12.73;;;3.03;;
39890;SDS011;25564;53.312;9.790;2023-04-25T13:48:31;7.27;;;3.23;;
39890;SDS011;25564;53.312;9.790;2023-04-25T13:51:02;3.53;;;2.17;;
39890;SDS011;25564;53.312;9.790;2023-04-25T13:53:34;5.63;;;1.70;;
39890;SDS011;25564;53.312;9.790;2023-04-25T13:56:05;7.53;;;2.60;;
39890;SDS011;25564;53.312;9.790;2023-04-25T13:58:37;7.87;;;2.40;;
39890;SDS011;25564;53.312;9.790;2023-04-25T14:01:09;12.37;;;2.83;;
39890;SDS011;25564;53.312;9.790;2023-04-25T14:03:40;3.70;;;1.30;;
39890;SDS011;25564;53.312;9.790;2023-04-25T14:06:12;4.93;;;1.47;;
39890;SDS011;25564;53.312;9.790;2023-04-25T14:08:44;5.30;;;1.33;;
39890;SDS011;25564;53.312;9.790;2023-04-25T14:11:16;4.90;;;1.67;;
39890;SDS011;25564;53.312;9.790;2023-04-25T14:13:49;7.03;;;1.67;;
39890;SDS011;25564;53.312;9.790;2023-04-25T14:16:21;5.83;;;1.90;;
39890;SDS011;25564;53.312;9.790;2023-04-25T14:18:54;6.03;;;1.63;;
39890;SDS011;25564;53.312;9.790;2023-04-25T14:21:26;5.70;;;2.33;;
39890;SDS011;25564;53.312;9.790;2023-04-25T14:23:58;5.40;;;1.50;;
39890;SDS011;25564;53.312;9.790;2023-04-25T14:26:29;6.77;;;2.27;;
39890;SDS011;25564;53.312;9.790;2023-04-25T14:29:01;9.07;;;3.23;;
39890;SDS011;25564;53.312;9.790;2023-04-25T14:31:33;8.63;;;3.20;;
39890;SDS011;25564;53.312;9.790;2023-04-25T14:34:04;10.10;;;2.33;;
39890;SDS011;25564;53.312;9.790;2023-04-25T14:36:36;10.83;;;2.03;;
39890;SDS011;25564;53.312;9.790;2023-04-25T14:39:08;5.43;;;2.20;;
39890;SDS011;25564;53.312;9.790;2023-04-25T14:41:39;5.00;;;2.00;;
39890;SDS011;25564;53.312;9.790;2023-04-25T14:44:11;8.80;;;1.97;;
39890;SDS011;25564;53.312;9.790;2023-04-25T14:46:42;8.17;;;2.37;;
39890;SDS011;25564;53.312;9.790;2023-04-25T14:49:14;5.33;;;2.17;;
39890;SDS011;25564;53.312;9.790;2023-04-25T14:51:45;4.97;;;1.67;;
39890;SDS011;25564;53.312;9.790;2023-04-25T14:54:16;4.57;;;1.80;;
39890;SDS011;25564;53.312;9.790;2023-04-25T14:56:48;8.07;;;1.43;;
39890;SDS011;25564;53.312;9.790;2023-04-25T14:59:19;6.37;;;2.13;;
39890;SDS011;25564;53.312;9.790;2023-04-25T15:01:51;5.00;;;1.77;;
39890;SDS011;25564;53.312;9.790;2023-04-25T15:04:22;2.23;;;0.83;;
39890;SDS011;25564;53.312;9.790;2023-04-25T15:06:54;4.53;;;1.20;;
39890;SDS011;25564;53.312;9.790;2023-04-25T15:09:25;2.40;;;0.80;;
39890;SDS011;25564;53.312;9.790;2023-04-25T15:11:57;2.87;;;1.13;;
39890;SDS011;25564;53.312;9.790;2023-04-25T15:14:29;3.20;;;0.93;;
39890;SDS011;25564;53.312;9.790;2023-04-25T15:17:00;7.87;;;1.57;;
39890;SDS011;25564;53.312;9.790;2023-04-25T15:19:32;5.43;;;1.47;;